メインページ
METAR-TAF:

METAR-TAF

空港 :

タリハ, ボリビア

緯度: 21-33S, 経度: 064-42W, 海抜: 1854m

現時点の気象観測

当レポートは33分前の09:00(UTC)に作成
無風
気温 15°C
湿度 100%
気圧 1020 hPa
視程: 6000m
高度300ftの雲はほとんどない
高度1700ftの千切れ雲あり
高度7000ftの曇り
小雨

METAR: SLTJ 190900Z 00000KT 6000 -RA FEW003 BKN017 OVC070 15/15 Q1020

時間: 05:33 (09:33 UTC)

予報

当レポートは5時間33分前の04:00(UTC)に作成
予報は19日の 06時(UTC)から 20日の 06時(UTC)まで有効
の風 kt
視程: 5000m
高度300ftの雲は散在している
高度1700ftの千切れ雲あり
高度7000ftの曇り
19日の 10時(UTC)から 19日の 12時(UTC)まで徐々に
視程10km以上
高度2300ftの千切れ雲あり
高度7000ftの曇り
19日の 14時(UTC)から 19日の 16時(UTC)まで徐々に
南/南東の風 12kt
高度2700ftの雲は散在している
高度7000ftの雲は散在している
19日の 19時(UTC)から 19日の 21時(UTC)まで一時的に
視程: 8000m
高度3300ftの雲はほとんどない, 積乱雲.
にわか雨

TAF: SLTJ 190400Z 1906/2006 00000KT 5000 RA SCT003 BKN017 OVC070 TX25/ 1919Z TN12/1910Z BECMG 1910/1912 9999 NSW BKN023 OVC070 BECMG 1914/1916 15012KT SCT027 SCT070 TEMPO 1919/1921 8000 SHRA FEW033CB

4,000以上の空港の気象観測と天気予報(METAR報とTAF報)

利用可能な観測所は地図上に黄色い丸と赤い丸で示す。

丸の上にカーソルを重ねると観測所名を参照できる。

次にクリックすると気象観測と天気予報を参照できる。

マップの切り替え:黒色「×」印の緑ボタンをクリックして拡大、「-」印の緑ボタンをクリックして縮小、緑色の三角印をクリックして隣りの地図に切り替え


METAR-TAF: